sensor_id;sensor_type;location;lat;lon;timestamp;P1;durP1;ratioP1;P2;durP2;ratioP2
18720;SDS011;9489;50.948;3.114;2024-03-22T00:00:41;36.80;;;26.27;;
18720;SDS011;9489;50.948;3.114;2024-03-22T00:03:07;37.42;;;25.13;;
18720;SDS011;9489;50.948;3.114;2024-03-22T00:05:33;36.83;;;25.45;;
18720;SDS011;9489;50.948;3.114;2024-03-22T00:07:58;36.17;;;24.65;;
18720;SDS011;9489;50.948;3.114;2024-03-22T00:10:24;34.42;;;24.25;;
18720;SDS011;9489;50.948;3.114;2024-03-22T00:12:50;35.13;;;24.23;;
18720;SDS011;9489;50.948;3.114;2024-03-22T00:15:15;31.60;;;21.40;;
18720;SDS011;9489;50.948;3.114;2024-03-22T00:17:44;25.45;;;19.35;;
18720;SDS011;9489;50.948;3.114;2024-03-22T00:20:10;25.35;;;19.38;;
18720;SDS011;9489;50.948;3.114;2024-03-22T00:22:36;23.90;;;18.17;;
18720;SDS011;9489;50.948;3.114;2024-03-22T00:25:01;21.85;;;16.40;;
18720;SDS011;9489;50.948;3.114;2024-03-22T00:27:27;23.55;;;17.50;;
18720;SDS011;9489;50.948;3.114;2024-03-22T00:29:53;21.10;;;17.20;;
18720;SDS011;9489;50.948;3.114;2024-03-22T00:32:19;22.00;;;17.15;;
18720;SDS011;9489;50.948;3.114;2024-03-22T00:34:45;24.77;;;17.40;;
18720;SDS011;9489;50.948;3.114;2024-03-22T00:37:10;21.60;;;16.73;;
18720;SDS011;9489;50.948;3.114;2024-03-22T00:39:36;22.67;;;17.00;;
18720;SDS011;9489;50.948;3.114;2024-03-22T00:42:02;23.95;;;17.58;;
18720;SDS011;9489;50.948;3.114;2024-03-22T00:44:28;18.80;;;15.82;;
18720;SDS011;9489;50.948;3.114;2024-03-22T00:46:53;22.67;;;16.98;;
18720;SDS011;9489;50.948;3.114;2024-03-22T00:49:19;23.38;;;17.45;;
18720;SDS011;9489;50.948;3.114;2024-03-22T00:51:44;22.10;;;17.50;;
18720;SDS011;9489;50.948;3.114;2024-03-22T00:54:12;19.50;;;15.82;;
18720;SDS011;9489;50.948;3.114;2024-03-22T00:56:38;19.60;;;16.20;;
18720;SDS011;9489;50.948;3.114;2024-03-22T00:59:03;17.95;;;15.05;;
18720;SDS011;9489;50.948;3.114;2024-03-22T01:01:29;18.73;;;16.38;;
18720;SDS011;9489;50.948;3.114;2024-03-22T01:03:55;17.70;;;15.38;;
18720;SDS011;9489;50.948;3.114;2024-03-22T01:06:21;17.13;;;15.02;;
18720;SDS011;9489;50.948;3.114;2024-03-22T01:08:50;17.48;;;14.88;;
18720;SDS011;9489;50.948;3.114;2024-03-22T01:11:16;16.70;;;14.90;;
18720;SDS011;9489;50.948;3.114;2024-03-22T01:13:42;19.25;;;15.48;;
18720;SDS011;9489;50.948;3.114;2024-03-22T01:16:08;20.45;;;16.17;;
18720;SDS011;9489;50.948;3.114;2024-03-22T01:18:35;19.08;;;15.88;;
18720;SDS011;9489;50.948;3.114;2024-03-22T01:21:01;20.05;;;15.32;;
18720;SDS011;9489;50.948;3.114;2024-03-22T01:23:27;18.83;;;15.05;;
18720;SDS011;9489;50.948;3.114;2024-03-22T01:25:53;19.30;;;15.85;;
18720;SDS011;9489;50.948;3.114;2024-03-22T01:28:19;19.20;;;15.07;;
18720;SDS011;9489;50.948;3.114;2024-03-22T01:30:44;18.55;;;15.05;;
18720;SDS011;9489;50.948;3.114;2024-03-22T01:33:10;18.88;;;15.55;;
18720;SDS011;9489;50.948;3.114;2024-03-22T01:35:35;19.10;;;15.82;;
18720;SDS011;9489;50.948;3.114;2024-03-22T01:38:01;21.88;;;16.02;;
18720;SDS011;9489;50.948;3.114;2024-03-22T01:40:27;20.40;;;16.15;;
18720;SDS011;9489;50.948;3.114;2024-03-22T01:42:53;22.15;;;16.92;;
18720;SDS011;9489;50.948;3.114;2024-03-22T01:45:20;22.75;;;16.55;;
18720;SDS011;9489;50.948;3.114;2024-03-22T01:47:49;21.27;;;15.88;;
18720;SDS011;9489;50.948;3.114;2024-03-22T01:50:21;22.33;;;16.88;;
18720;SDS011;9489;50.948;3.114;2024-03-22T01:52:47;24.90;;;16.88;;
18720;SDS011;9489;50.948;3.114;2024-03-22T01:55:13;22.25;;;17.25;;
18720;SDS011;9489;50.948;3.114;2024-03-22T01:57:39;23.58;;;18.52;;
18720;SDS011;9489;50.948;3.114;2024-03-22T02:00:06;22.92;;;17.63;;
18720;SDS011;9489;50.948;3.114;2024-03-22T02:02:34;22.10;;;16.20;;
18720;SDS011;9489;50.948;3.114;2024-03-22T02:04:59;25.55;;;17.77;;
18720;SDS011;9489;50.948;3.114;2024-03-22T02:07:37;23.50;;;18.27;;
18720;SDS011;9489;50.948;3.114;2024-03-22T02:10:03;24.70;;;18.48;;
18720;SDS011;9489;50.948;3.114;2024-03-22T02:12:29;27.20;;;19.33;;
18720;SDS011;9489;50.948;3.114;2024-03-22T02:14:57;26.15;;;19.63;;
18720;SDS011;9489;50.948;3.114;2024-03-22T02:17:23;26.98;;;19.73;;
18720;SDS011;9489;50.948;3.114;2024-03-22T02:19:49;23.77;;;18.42;;
18720;SDS011;9489;50.948;3.114;2024-03-22T02:22:14;25.58;;;18.88;;
18720;SDS011;9489;50.948;3.114;2024-03-22T02:24:40;24.92;;;18.02;;
18720;SDS011;9489;50.948;3.114;2024-03-22T02:27:06;23.77;;;18.35;;
18720;SDS011;9489;50.948;3.114;2024-03-22T02:29:31;23.50;;;18.80;;
18720;SDS011;9489;50.948;3.114;2024-03-22T02:31:57;25.70;;;18.15;;
18720;SDS011;9489;50.948;3.114;2024-03-22T02:34:23;24.48;;;19.13;;
18720;SDS011;9489;50.948;3.114;2024-03-22T02:36:49;23.70;;;19.35;;
18720;SDS011;9489;50.948;3.114;2024-03-22T02:39:15;24.58;;;19.27;;
18720;SDS011;9489;50.948;3.114;2024-03-22T02:41:40;24.10;;;19.90;;
18720;SDS011;9489;50.948;3.114;2024-03-22T02:44:06;23.48;;;18.73;;
18720;SDS011;9489;50.948;3.114;2024-03-22T02:46:31;23.52;;;18.90;;
18720;SDS011;9489;50.948;3.114;2024-03-22T02:48:57;22.23;;;19.33;;
18720;SDS011;9489;50.948;3.114;2024-03-22T02:51:23;22.40;;;17.90;;
18720;SDS011;9489;50.948;3.114;2024-03-22T02:53:48;26.23;;;18.85;;
18720;SDS011;9489;50.948;3.114;2024-03-22T02:56:14;21.52;;;17.55;;
18720;SDS011;9489;50.948;3.114;2024-03-22T02:58:40;21.90;;;17.38;;
18720;SDS011;9489;50.948;3.114;2024-03-22T03:01:06;22.02;;;17.20;;
18720;SDS011;9489;50.948;3.114;2024-03-22T03:03:31;21.95;;;16.42;;
18720;SDS011;9489;50.948;3.114;2024-03-22T03:05:57;20.35;;;15.90;;
18720;SDS011;9489;50.948;3.114;2024-03-22T03:08:23;21.35;;;16.63;;
18720;SDS011;9489;50.948;3.114;2024-03-22T03:10:49;21.50;;;16.45;;
18720;SDS011;9489;50.948;3.114;2024-03-22T03:13:14;22.08;;;16.40;;
18720;SDS011;9489;50.948;3.114;2024-03-22T03:15:40;19.17;;;15.85;;
18720;SDS011;9489;50.948;3.114;2024-03-22T03:18:05;21.63;;;16.45;;
18720;SDS011;9489;50.948;3.114;2024-03-22T03:20:31;19.60;;;15.38;;
18720;SDS011;9489;50.948;3.114;2024-03-22T03:22:57;18.27;;;15.00;;
18720;SDS011;9489;50.948;3.114;2024-03-22T03:25:25;15.57;;;13.82;;
18720;SDS011;9489;50.948;3.114;2024-03-22T03:27:51;15.50;;;13.20;;
18720;SDS011;9489;50.948;3.114;2024-03-22T03:30:17;16.63;;;12.80;;
18720;SDS011;9489;50.948;3.114;2024-03-22T03:32:42;14.90;;;12.20;;
18720;SDS011;9489;50.948;3.114;2024-03-22T03:35:08;15.80;;;12.65;;
18720;SDS011;9489;50.948;3.114;2024-03-22T03:37:34;15.20;;;12.57;;
18720;SDS011;9489;50.948;3.114;2024-03-22T03:39:59;16.25;;;12.23;;
18720;SDS011;9489;50.948;3.114;2024-03-22T03:42:25;12.50;;;11.20;;
18720;SDS011;9489;50.948;3.114;2024-03-22T03:44:51;12.23;;;10.32;;
18720;SDS011;9489;50.948;3.114;2024-03-22T03:47:17;11.93;;;9.95;;
18720;SDS011;9489;50.948;3.114;2024-03-22T03:49:45;11.40;;;8.85;;
18720;SDS011;9489;50.948;3.114;2024-03-22T03:52:11;12.60;;;9.48;;
18720;SDS011;9489;50.948;3.114;2024-03-22T03:54:36;11.82;;;9.63;;
18720;SDS011;9489;50.948;3.114;2024-03-22T03:57:02;13.57;;;10.27;;
18720;SDS011;9489;50.948;3.114;2024-03-22T03:59:28;13.20;;;9.80;;
18720;SDS011;9489;50.948;3.114;2024-03-22T04:01:54;11.93;;;10.68;;
18720;SDS011;9489;50.948;3.114;2024-03-22T04:04:20;13.82;;;10.30;;
18720;SDS011;9489;50.948;3.114;2024-03-22T04:06:46;12.65;;;10.02;;
18720;SDS011;9489;50.948;3.114;2024-03-22T04:09:11;11.48;;;9.13;;
18720;SDS011;9489;50.948;3.114;2024-03-22T04:11:37;12.27;;;9.80;;
18720;SDS011;9489;50.948;3.114;2024-03-22T04:14:06;10.93;;;8.60;;
18720;SDS011;9489;50.948;3.114;2024-03-22T04:16:31;10.68;;;9.07;;
18720;SDS011;9489;50.948;3.114;2024-03-22T04:18:57;11.13;;;8.68;;
18720;SDS011;9489;50.948;3.114;2024-03-22T04:21:23;12.10;;;8.50;;
18720;SDS011;9489;50.948;3.114;2024-03-22T04:23:48;12.15;;;8.43;;
18720;SDS011;9489;50.948;3.114;2024-03-22T04:26:14;11.18;;;8.40;;
18720;SDS011;9489;50.948;3.114;2024-03-22T04:28:40;10.63;;;8.02;;
18720;SDS011;9489;50.948;3.114;2024-03-22T04:31:07;11.40;;;7.80;;
18720;SDS011;9489;50.948;3.114;2024-03-22T04:33:37;12.75;;;8.77;;
18720;SDS011;9489;50.948;3.114;2024-03-22T04:36:03;9.73;;;7.38;;
18720;SDS011;9489;50.948;3.114;2024-03-22T04:38:29;10.77;;;7.32;;
18720;SDS011;9489;50.948;3.114;2024-03-22T04:40:56;8.73;;;7.53;;
18720;SDS011;9489;50.948;3.114;2024-03-22T04:43:25;9.40;;;7.82;;
18720;SDS011;9489;50.948;3.114;2024-03-22T04:45:50;9.77;;;7.53;;
18720;SDS011;9489;50.948;3.114;2024-03-22T04:48:17;13.98;;;9.15;;
18720;SDS011;9489;50.948;3.114;2024-03-22T04:50:45;13.35;;;9.82;;
18720;SDS011;9489;50.948;3.114;2024-03-22T04:53:13;12.73;;;9.63;;
18720;SDS011;9489;50.948;3.114;2024-03-22T04:55:39;13.40;;;8.80;;
18720;SDS011;9489;50.948;3.114;2024-03-22T04:58:10;16.70;;;9.70;;
18720;SDS011;9489;50.948;3.114;2024-03-22T05:00:37;13.13;;;10.52;;
18720;SDS011;9489;50.948;3.114;2024-03-22T05:03:03;14.23;;;10.20;;
18720;SDS011;9489;50.948;3.114;2024-03-22T05:05:29;13.43;;;9.70;;
18720;SDS011;9489;50.948;3.114;2024-03-22T05:07:54;13.07;;;9.40;;
18720;SDS011;9489;50.948;3.114;2024-03-22T05:10:20;12.73;;;9.40;;
18720;SDS011;9489;50.948;3.114;2024-03-22T05:12:45;11.80;;;8.82;;
18720;SDS011;9489;50.948;3.114;2024-03-22T05:15:11;10.93;;;8.52;;
18720;SDS011;9489;50.948;3.114;2024-03-22T05:17:37;13.07;;;9.00;;
18720;SDS011;9489;50.948;3.114;2024-03-22T05:20:04;10.32;;;8.27;;
18720;SDS011;9489;50.948;3.114;2024-03-22T05:22:32;11.00;;;8.25;;
18720;SDS011;9489;50.948;3.114;2024-03-22T05:24:57;11.65;;;8.40;;
18720;SDS011;9489;50.948;3.114;2024-03-22T05:27:23;10.98;;;8.70;;
18720;SDS011;9489;50.948;3.114;2024-03-22T05:29:48;10.15;;;9.10;;
18720;SDS011;9489;50.948;3.114;2024-03-22T05:32:14;12.18;;;9.63;;
18720;SDS011;9489;50.948;3.114;2024-03-22T05:34:40;12.02;;;9.30;;
18720;SDS011;9489;50.948;3.114;2024-03-22T05:37:05;10.48;;;8.80;;
18720;SDS011;9489;50.948;3.114;2024-03-22T05:39:31;10.82;;;8.85;;
18720;SDS011;9489;50.948;3.114;2024-03-22T05:41:56;10.25;;;9.18;;
18720;SDS011;9489;50.948;3.114;2024-03-22T05:44:22;11.63;;;9.35;;
18720;SDS011;9489;50.948;3.114;2024-03-22T05:46:48;10.85;;;9.20;;
18720;SDS011;9489;50.948;3.114;2024-03-22T05:49:14;11.35;;;9.82;;
18720;SDS011;9489;50.948;3.114;2024-03-22T05:51:40;11.15;;;8.93;;
18720;SDS011;9489;50.948;3.114;2024-03-22T05:54:06;10.80;;;9.70;;
18720;SDS011;9489;50.948;3.114;2024-03-22T05:56:32;10.25;;;9.25;;
18720;SDS011;9489;50.948;3.114;2024-03-22T05:58:58;12.65;;;9.85;;
18720;SDS011;9489;50.948;3.114;2024-03-22T06:01:24;10.73;;;9.63;;
18720;SDS011;9489;50.948;3.114;2024-03-22T06:03:50;12.75;;;10.90;;
18720;SDS011;9489;50.948;3.114;2024-03-22T06:06:16;15.18;;;10.32;;
18720;SDS011;9489;50.948;3.114;2024-03-22T06:08:41;11.00;;;9.75;;
18720;SDS011;9489;50.948;3.114;2024-03-22T06:11:10;12.30;;;9.73;;
18720;SDS011;9489;50.948;3.114;2024-03-22T06:13:35;11.80;;;9.57;;
18720;SDS011;9489;50.948;3.114;2024-03-22T06:16:01;12.98;;;10.27;;
18720;SDS011;9489;50.948;3.114;2024-03-22T06:18:28;12.77;;;9.98;;
18720;SDS011;9489;50.948;3.114;2024-03-22T06:20:54;10.20;;;9.18;;
18720;SDS011;9489;50.948;3.114;2024-03-22T06:23:20;11.93;;;8.73;;
18720;SDS011;9489;50.948;3.114;2024-03-22T06:25:53;11.73;;;9.30;;
18720;SDS011;9489;50.948;3.114;2024-03-22T06:28:19;13.23;;;8.82;;
18720;SDS011;9489;50.948;3.114;2024-03-22T06:30:45;11.20;;;8.25;;
18720;SDS011;9489;50.948;3.114;2024-03-22T06:33:10;11.80;;;9.60;;
18720;SDS011;9489;50.948;3.114;2024-03-22T06:35:36;14.52;;;9.15;;
18720;SDS011;9489;50.948;3.114;2024-03-22T06:38:02;10.30;;;8.68;;
18720;SDS011;9489;50.948;3.114;2024-03-22T06:40:28;12.40;;;9.15;;
18720;SDS011;9489;50.948;3.114;2024-03-22T06:42:54;13.43;;;10.35;;
18720;SDS011;9489;50.948;3.114;2024-03-22T06:45:19;13.00;;;10.25;;
18720;SDS011;9489;50.948;3.114;2024-03-22T06:47:45;14.10;;;12.43;;
18720;SDS011;9489;50.948;3.114;2024-03-22T06:50:11;15.82;;;11.82;;
18720;SDS011;9489;50.948;3.114;2024-03-22T06:52:38;15.68;;;11.85;;
18720;SDS011;9489;50.948;3.114;2024-03-22T06:55:04;16.33;;;11.82;;
18720;SDS011;9489;50.948;3.114;2024-03-22T06:57:30;15.23;;;12.35;;
18720;SDS011;9489;50.948;3.114;2024-03-22T06:59:55;17.75;;;12.68;;
18720;SDS011;9489;50.948;3.114;2024-03-22T07:02:21;15.65;;;12.30;;
18720;SDS011;9489;50.948;3.114;2024-03-22T07:04:47;15.10;;;11.70;;
18720;SDS011;9489;50.948;3.114;2024-03-22T07:07:12;20.08;;;13.00;;
18720;SDS011;9489;50.948;3.114;2024-03-22T07:09:38;17.92;;;11.52;;
18720;SDS011;9489;50.948;3.114;2024-03-22T07:12:04;15.40;;;13.23;;
18720;SDS011;9489;50.948;3.114;2024-03-22T07:14:30;20.40;;;12.63;;
18720;SDS011;9489;50.948;3.114;2024-03-22T07:16:55;18.73;;;13.07;;
18720;SDS011;9489;50.948;3.114;2024-03-22T07:19:21;16.05;;;12.20;;
18720;SDS011;9489;50.948;3.114;2024-03-22T07:21:47;17.13;;;12.32;;
18720;SDS011;9489;50.948;3.114;2024-03-22T07:24:13;17.77;;;11.95;;
18720;SDS011;9489;50.948;3.114;2024-03-22T07:26:39;14.52;;;11.18;;
18720;SDS011;9489;50.948;3.114;2024-03-22T07:29:04;16.95;;;11.40;;
18720;SDS011;9489;50.948;3.114;2024-03-22T07:31:30;13.93;;;11.23;;
18720;SDS011;9489;50.948;3.114;2024-03-22T07:33:56;14.68;;;11.13;;
18720;SDS011;9489;50.948;3.114;2024-03-22T07:36:22;13.80;;;10.18;;
18720;SDS011;9489;50.948;3.114;2024-03-22T07:38:47;18.60;;;11.70;;
18720;SDS011;9489;50.948;3.114;2024-03-22T07:41:14;14.43;;;10.45;;
18720;SDS011;9489;50.948;3.114;2024-03-22T07:43:40;16.55;;;11.18;;
18720;SDS011;9489;50.948;3.114;2024-03-22T07:46:05;14.70;;;10.90;;
18720;SDS011;9489;50.948;3.114;2024-03-22T07:48:31;17.17;;;10.68;;
18720;SDS011;9489;50.948;3.114;2024-03-22T07:50:57;16.88;;;10.45;;
18720;SDS011;9489;50.948;3.114;2024-03-22T07:53:24;16.42;;;10.52;;
18720;SDS011;9489;50.948;3.114;2024-03-22T07:55:50;16.08;;;9.13;;
18720;SDS011;9489;50.948;3.114;2024-03-22T07:58:15;13.40;;;8.75;;
18720;SDS011;9489;50.948;3.114;2024-03-22T08:00:41;12.57;;;8.98;;
18720;SDS011;9489;50.948;3.114;2024-03-22T08:03:07;12.93;;;9.20;;
18720;SDS011;9489;50.948;3.114;2024-03-22T08:05:33;13.30;;;9.07;;
18720;SDS011;9489;50.948;3.114;2024-03-22T08:07:59;13.77;;;9.20;;
18720;SDS011;9489;50.948;3.114;2024-03-22T08:10:24;12.98;;;8.50;;
18720;SDS011;9489;50.948;3.114;2024-03-22T08:12:50;12.02;;;8.80;;
18720;SDS011;9489;50.948;3.114;2024-03-22T08:15:17;12.27;;;8.15;;
18720;SDS011;9489;50.948;3.114;2024-03-22T08:17:43;13.63;;;8.73;;
18720;SDS011;9489;50.948;3.114;2024-03-22T08:20:08;11.98;;;8.48;;
18720;SDS011;9489;50.948;3.114;2024-03-22T08:22:34;15.70;;;8.45;;
18720;SDS011;9489;50.948;3.114;2024-03-22T08:25:00;13.18;;;8.95;;
18720;SDS011;9489;50.948;3.114;2024-03-22T08:27:27;14.25;;;8.48;;
18720;SDS011;9489;50.948;3.114;2024-03-22T08:29:53;13.65;;;9.18;;
18720;SDS011;9489;50.948;3.114;2024-03-22T08:32:18;15.02;;;8.43;;
18720;SDS011;9489;50.948;3.114;2024-03-22T08:34:45;16.60;;;8.95;;
18720;SDS011;9489;50.948;3.114;2024-03-22T08:37:11;11.70;;;7.70;;
18720;SDS011;9489;50.948;3.114;2024-03-22T08:39:36;13.52;;;7.30;;
18720;SDS011;9489;50.948;3.114;2024-03-22T08:42:02;8.73;;;7.53;;
18720;SDS011;9489;50.948;3.114;2024-03-22T08:44:30;11.80;;;7.28;;
18720;SDS011;9489;50.948;3.114;2024-03-22T08:46:56;9.30;;;7.32;;
18720;SDS011;9489;50.948;3.114;2024-03-22T08:49:23;14.55;;;7.65;;
18720;SDS011;9489;50.948;3.114;2024-03-22T08:51:49;9.25;;;6.75;;
18720;SDS011;9489;50.948;3.114;2024-03-22T08:54:14;9.55;;;6.20;;
18720;SDS011;9489;50.948;3.114;2024-03-22T08:56:40;14.10;;;6.43;;
18720;SDS011;9489;50.948;3.114;2024-03-22T08:59:06;7.57;;;5.95;;
18720;SDS011;9489;50.948;3.114;2024-03-22T09:01:32;10.75;;;5.93;;
18720;SDS011;9489;50.948;3.114;2024-03-22T09:03:58;13.02;;;7.32;;
18720;SDS011;9489;50.948;3.114;2024-03-22T09:06:23;11.43;;;6.90;;
18720;SDS011;9489;50.948;3.114;2024-03-22T09:08:49;12.60;;;6.93;;
18720;SDS011;9489;50.948;3.114;2024-03-22T09:11:14;12.90;;;6.75;;
18720;SDS011;9489;50.948;3.114;2024-03-22T09:13:40;15.85;;;6.55;;
18720;SDS011;9489;50.948;3.114;2024-03-22T09:16:06;13.95;;;6.35;;
18720;SDS011;9489;50.948;3.114;2024-03-22T09:18:31;11.85;;;6.82;;
18720;SDS011;9489;50.948;3.114;2024-03-22T09:20:58;9.48;;;5.15;;
18720;SDS011;9489;50.948;3.114;2024-03-22T09:23:23;12.25;;;5.07;;
18720;SDS011;9489;50.948;3.114;2024-03-22T09:25:49;12.80;;;5.60;;
18720;SDS011;9489;50.948;3.114;2024-03-22T09:28:15;12.30;;;5.70;;
18720;SDS011;9489;50.948;3.114;2024-03-22T09:30:40;10.20;;;5.40;;
18720;SDS011;9489;50.948;3.114;2024-03-22T09:33:08;15.07;;;5.45;;
18720;SDS011;9489;50.948;3.114;2024-03-22T09:35:34;9.68;;;4.68;;
18720;SDS011;9489;50.948;3.114;2024-03-22T09:38:00;9.95;;;5.13;;
18720;SDS011;9489;50.948;3.114;2024-03-22T09:40:27;9.48;;;4.95;;
18720;SDS011;9489;50.948;3.114;2024-03-22T09:42:53;13.40;;;5.43;;
18720;SDS011;9489;50.948;3.114;2024-03-22T09:45:19;16.35;;;5.43;;
18720;SDS011;9489;50.948;3.114;2024-03-22T09:47:45;7.78;;;5.03;;
18720;SDS011;9489;50.948;3.114;2024-03-22T09:50:13;13.75;;;6.03;;
18720;SDS011;9489;50.948;3.114;2024-03-22T09:52:39;12.00;;;5.57;;
18720;SDS011;9489;50.948;3.114;2024-03-22T09:55:07;14.63;;;5.80;;
18720;SDS011;9489;50.948;3.114;2024-03-22T09:57:38;10.85;;;5.82;;
18720;SDS011;9489;50.948;3.114;2024-03-22T10:00:06;9.48;;;5.13;;
18720;SDS011;9489;50.948;3.114;2024-03-22T10:02:33;15.35;;;5.72;;
18720;SDS011;9489;50.948;3.114;2024-03-22T10:04:59;10.45;;;6.03;;
18720;SDS011;9489;50.948;3.114;2024-03-22T10:07:27;13.65;;;6.30;;
18720;SDS011;9489;50.948;3.114;2024-03-22T10:09:53;11.18;;;6.25;;
18720;SDS011;9489;50.948;3.114;2024-03-22T10:12:22;13.52;;;6.28;;
18720;SDS011;9489;50.948;3.114;2024-03-22T10:14:48;12.77;;;6.85;;
18720;SDS011;9489;50.948;3.114;2024-03-22T10:17:13;13.05;;;7.47;;
18720;SDS011;9489;50.948;3.114;2024-03-22T10:19:39;12.52;;;7.28;;
18720;SDS011;9489;50.948;3.114;2024-03-22T10:22:05;19.50;;;7.53;;
18720;SDS011;9489;50.948;3.114;2024-03-22T10:24:31;12.57;;;7.28;;
18720;SDS011;9489;50.948;3.114;2024-03-22T10:26:58;10.70;;;8.00;;
18720;SDS011;9489;50.948;3.114;2024-03-22T10:29:24;13.55;;;8.23;;
18720;SDS011;9489;50.948;3.114;2024-03-22T10:31:54;14.65;;;9.05;;
18720;SDS011;9489;50.948;3.114;2024-03-22T10:34:21;14.52;;;8.25;;
18720;SDS011;9489;50.948;3.114;2024-03-22T10:36:47;13.20;;;8.40;;
18720;SDS011;9489;50.948;3.114;2024-03-22T10:39:15;16.95;;;9.27;;
18720;SDS011;9489;50.948;3.114;2024-03-22T10:41:45;14.93;;;8.85;;
18720;SDS011;9489;50.948;3.114;2024-03-22T10:44:12;15.88;;;9.57;;
18720;SDS011;9489;50.948;3.114;2024-03-22T10:46:38;17.70;;;10.40;;
18720;SDS011;9489;50.948;3.114;2024-03-22T10:49:08;19.95;;;11.40;;
18720;SDS011;9489;50.948;3.114;2024-03-22T10:51:37;24.58;;;14.02;;
18720;SDS011;9489;50.948;3.114;2024-03-22T10:54:03;20.70;;;12.35;;
18720;SDS011;9489;50.948;3.114;2024-03-22T10:56:31;24.25;;;12.30;;
18720;SDS011;9489;50.948;3.114;2024-03-22T10:59:02;19.63;;;12.20;;
18720;SDS011;9489;50.948;3.114;2024-03-22T11:01:29;18.33;;;13.07;;
18720;SDS011;9489;50.948;3.114;2024-03-22T11:04:05;19.83;;;12.45;;
18720;SDS011;9489;50.948;3.114;2024-03-22T11:06:37;15.40;;;12.07;;
18720;SDS011;9489;50.948;3.114;2024-03-22T11:09:03;18.80;;;12.52;;
18720;SDS011;9489;50.948;3.114;2024-03-22T11:11:34;16.58;;;11.68;;
18720;SDS011;9489;50.948;3.114;2024-03-22T11:14:05;17.98;;;12.18;;
18720;SDS011;9489;50.948;3.114;2024-03-22T11:16:30;17.85;;;11.18;;
18720;SDS011;9489;50.948;3.114;2024-03-22T11:18:56;14.65;;;10.10;;
18720;SDS011;9489;50.948;3.114;2024-03-22T11:21:22;16.48;;;10.57;;
18720;SDS011;9489;50.948;3.114;2024-03-22T11:23:48;18.45;;;11.32;;
18720;SDS011;9489;50.948;3.114;2024-03-22T11:26:15;17.30;;;10.88;;
18720;SDS011;9489;50.948;3.114;2024-03-22T11:28:41;15.02;;;10.55;;
18720;SDS011;9489;50.948;3.114;2024-03-22T11:31:07;17.98;;;11.35;;
18720;SDS011;9489;50.948;3.114;2024-03-22T11:33:33;15.88;;;11.75;;
18720;SDS011;9489;50.948;3.114;2024-03-22T11:35:59;17.75;;;11.70;;
18720;SDS011;9489;50.948;3.114;2024-03-22T11:38:26;15.30;;;10.65;;
18720;SDS011;9489;50.948;3.114;2024-03-22T11:40:55;19.95;;;10.85;;
18720;SDS011;9489;50.948;3.114;2024-03-22T11:43:24;14.65;;;10.20;;
18720;SDS011;9489;50.948;3.114;2024-03-22T11:45:52;16.83;;;9.98;;
18720;SDS011;9489;50.948;3.114;2024-03-22T11:48:19;13.77;;;9.55;;
18720;SDS011;9489;50.948;3.114;2024-03-22T11:50:45;18.08;;;9.50;;
18720;SDS011;9489;50.948;3.114;2024-03-22T11:53:11;13.25;;;10.50;;
18720;SDS011;9489;50.948;3.114;2024-03-22T11:55:36;13.23;;;9.90;;
18720;SDS011;9489;50.948;3.114;2024-03-22T11:58:02;12.98;;;10.77;;
18720;SDS011;9489;50.948;3.114;2024-03-22T12:00:28;14.82;;;9.95;;
18720;SDS011;9489;50.948;3.114;2024-03-22T12:02:54;13.50;;;10.63;;
18720;SDS011;9489;50.948;3.114;2024-03-22T12:05:23;12.60;;;10.55;;
18720;SDS011;9489;50.948;3.114;2024-03-22T12:07:51;11.05;;;9.82;;
18720;SDS011;9489;50.948;3.114;2024-03-22T12:10:17;12.98;;;11.50;;
18720;SDS011;9489;50.948;3.114;2024-03-22T12:12:43;13.35;;;11.15;;
18720;SDS011;9489;50.948;3.114;2024-03-22T12:15:09;12.50;;;11.05;;
18720;SDS011;9489;50.948;3.114;2024-03-22T12:17:34;11.75;;;10.50;;
18720;SDS011;9489;50.948;3.114;2024-03-22T12:20:02;12.57;;;11.23;;
18720;SDS011;9489;50.948;3.114;2024-03-22T12:22:29;13.50;;;11.57;;
18720;SDS011;9489;50.948;3.114;2024-03-22T12:24:55;12.90;;;10.95;;
18720;SDS011;9489;50.948;3.114;2024-03-22T12:27:21;14.82;;;12.07;;
18720;SDS011;9489;50.948;3.114;2024-03-22T12:29:46;15.13;;;11.32;;
18720;SDS011;9489;50.948;3.114;2024-03-22T12:32:12;17.83;;;12.95;;
18720;SDS011;9489;50.948;3.114;2024-03-22T12:34:38;14.45;;;12.68;;
18720;SDS011;9489;50.948;3.114;2024-03-22T12:37:03;13.73;;;12.15;;
18720;SDS011;9489;50.948;3.114;2024-03-22T12:39:29;19.55;;;12.60;;
18720;SDS011;9489;50.948;3.114;2024-03-22T12:41:57;13.25;;;11.93;;
18720;SDS011;9489;50.948;3.114;2024-03-22T12:44:23;13.88;;;11.48;;
18720;SDS011;9489;50.948;3.114;2024-03-22T12:46:48;17.65;;;12.02;;
18720;SDS011;9489;50.948;3.114;2024-03-22T12:49:16;13.13;;;11.73;;
18720;SDS011;9489;50.948;3.114;2024-03-22T12:51:42;14.02;;;11.98;;
18720;SDS011;9489;50.948;3.114;2024-03-22T12:54:08;13.85;;;10.95;;
18720;SDS011;9489;50.948;3.114;2024-03-22T12:56:34;13.88;;;10.77;;
18720;SDS011;9489;50.948;3.114;2024-03-22T12:58:59;11.48;;;10.43;;
18720;SDS011;9489;50.948;3.114;2024-03-22T13:01:25;10.73;;;9.68;;
18720;SDS011;9489;50.948;3.114;2024-03-22T13:03:51;10.90;;;9.85;;
18720;SDS011;9489;50.948;3.114;2024-03-22T13:06:17;9.75;;;8.95;;
18720;SDS011;9489;50.948;3.114;2024-03-22T13:08:42;10.98;;;9.73;;
18720;SDS011;9489;50.948;3.114;2024-03-22T13:11:08;10.55;;;9.60;;
18720;SDS011;9489;50.948;3.114;2024-03-22T13:13:34;10.55;;;9.00;;
18720;SDS011;9489;50.948;3.114;2024-03-22T13:16:00;10.68;;;9.60;;
18720;SDS011;9489;50.948;3.114;2024-03-22T13:18:28;9.90;;;8.88;;
18720;SDS011;9489;50.948;3.114;2024-03-22T13:20:54;9.90;;;8.48;;
18720;SDS011;9489;50.948;3.114;2024-03-22T13:23:20;9.75;;;8.95;;
18720;SDS011;9489;50.948;3.114;2024-03-22T13:25:45;9.40;;;8.50;;
18720;SDS011;9489;50.948;3.114;2024-03-22T13:28:11;10.18;;;8.60;;
18720;SDS011;9489;50.948;3.114;2024-03-22T13:30:37;9.60;;;8.70;;
18720;SDS011;9489;50.948;3.114;2024-03-22T13:33:03;9.85;;;8.85;;
18720;SDS011;9489;50.948;3.114;2024-03-22T13:35:29;8.85;;;8.15;;
18720;SDS011;9489;50.948;3.114;2024-03-22T13:37:55;8.60;;;8.00;;
18720;SDS011;9489;50.948;3.114;2024-03-22T13:40:21;10.38;;;9.30;;
18720;SDS011;9489;50.948;3.114;2024-03-22T13:42:47;10.60;;;9.50;;
18720;SDS011;9489;50.948;3.114;2024-03-22T13:45:12;9.65;;;8.40;;
18720;SDS011;9489;50.948;3.114;2024-03-22T13:47:38;9.02;;;8.02;;
18720;SDS011;9489;50.948;3.114;2024-03-22T13:50:05;8.20;;;7.47;;
18720;SDS011;9489;50.948;3.114;2024-03-22T13:52:33;8.85;;;8.02;;
18720;SDS011;9489;50.948;3.114;2024-03-22T13:54:59;8.77;;;7.93;;
18720;SDS011;9489;50.948;3.114;2024-03-22T13:57:29;9.65;;;8.75;;
18720;SDS011;9489;50.948;3.114;2024-03-22T13:59:56;9.50;;;8.68;;
18720;SDS011;9489;50.948;3.114;2024-03-22T14:02:22;9.20;;;8.50;;
18720;SDS011;9489;50.948;3.114;2024-03-22T14:04:48;10.02;;;9.18;;
18720;SDS011;9489;50.948;3.114;2024-03-22T14:07:13;10.90;;;9.82;;
18720;SDS011;9489;50.948;3.114;2024-03-22T14:09:39;11.52;;;10.50;;
18720;SDS011;9489;50.948;3.114;2024-03-22T14:12:06;11.60;;;10.52;;
18720;SDS011;9489;50.948;3.114;2024-03-22T14:14:31;11.65;;;10.48;;
18720;SDS011;9489;50.948;3.114;2024-03-22T14:16:57;11.77;;;10.60;;
18720;SDS011;9489;50.948;3.114;2024-03-22T14:19:23;11.80;;;10.80;;
18720;SDS011;9489;50.948;3.114;2024-03-22T14:21:49;11.35;;;10.20;;
18720;SDS011;9489;50.948;3.114;2024-03-22T14:24:15;11.07;;;9.98;;
18720;SDS011;9489;50.948;3.114;2024-03-22T14:26:41;10.13;;;9.23;;
18720;SDS011;9489;50.948;3.114;2024-03-22T14:29:10;9.60;;;8.80;;
18720;SDS011;9489;50.948;3.114;2024-03-22T14:31:37;10.77;;;9.80;;
18720;SDS011;9489;50.948;3.114;2024-03-22T14:34:04;10.65;;;9.55;;
18720;SDS011;9489;50.948;3.114;2024-03-22T14:36:31;9.93;;;9.13;;